createdAt,value
2018-09-06T00:00:44.149Z,10.40
2018-09-06T00:03:11.432Z,11.20
2018-09-06T00:05:38.856Z,11.00
2018-09-06T00:08:06.564Z,11.33
2018-09-06T00:10:33.786Z,11.47
2018-09-06T00:13:01.147Z,11.80
2018-09-06T00:15:28.505Z,10.97
2018-09-06T00:17:56.035Z,11.23
2018-09-06T00:20:23.815Z,11.07
2018-09-06T00:22:51.441Z,11.40
2018-09-06T00:25:19.045Z,11.00
2018-09-06T00:27:46.544Z,10.43
2018-09-06T00:30:14.259Z,10.60
2018-09-06T00:32:41.794Z,10.17
2018-09-06T00:35:09.040Z,11.27
2018-09-06T00:37:36.846Z,10.03
2018-09-06T00:40:04.092Z,11.20
2018-09-06T00:42:31.299Z,11.73
2018-09-06T00:44:58.570Z,11.30
2018-09-06T00:47:25.914Z,11.20
2018-09-06T00:49:53.372Z,10.83
2018-09-06T00:52:20.763Z,11.43
2018-09-06T00:54:48.168Z,12.37
2018-09-06T00:57:15.530Z,11.33
2018-09-06T00:59:42.983Z,11.30
2018-09-06T01:02:10.317Z,11.40
2018-09-06T01:04:37.859Z,10.63
2018-09-06T01:07:05.229Z,10.80
2018-09-06T01:09:32.658Z,10.43
2018-09-06T01:12:00.085Z,12.10
2018-09-06T01:14:27.874Z,10.50
2018-09-06T01:16:55.265Z,11.23
2018-09-06T01:19:22.568Z,11.13
2018-09-06T01:21:49.958Z,11.50
2018-09-06T01:24:17.556Z,10.77
2018-09-06T01:26:45.262Z,10.70
2018-09-06T01:29:12.602Z,11.77
2018-09-06T01:31:40.296Z,12.20
2018-09-06T01:34:07.658Z,11.27
2018-09-06T01:36:40.367Z,11.97
2018-09-06T01:39:08.332Z,9.80
2018-09-06T01:41:35.719Z,11.70
2018-09-06T01:44:03.680Z,10.93
2018-09-06T01:46:31.118Z,11.43
2018-09-06T01:48:58.517Z,12.00
2018-09-06T01:51:26.272Z,12.60
2018-09-06T01:53:53.697Z,11.23
2018-09-06T01:56:21.347Z,12.30
2018-09-06T01:58:48.650Z,11.57
2018-09-06T02:01:16.638Z,11.73
2018-09-06T02:03:44.408Z,11.97
2018-09-06T02:06:12.318Z,12.53
2018-09-06T02:08:40.056Z,12.30
2018-09-06T02:11:07.402Z,11.80
2018-09-06T02:13:34.928Z,11.60
2018-09-06T02:16:02.284Z,12.17
2018-09-06T02:18:30.377Z,11.27
2018-09-06T02:20:57.909Z,11.10
2018-09-06T02:23:25.348Z,11.90
2018-09-06T02:25:52.865Z,12.03
2018-09-06T02:28:20.130Z,11.67
2018-09-06T02:30:47.556Z,12.03
2018-09-06T02:33:14.837Z,11.53
2018-09-06T02:35:42.115Z,12.30
2018-09-06T02:38:09.506Z,11.57
2018-09-06T02:40:38.127Z,11.80
2018-09-06T02:43:06.266Z,12.00
2018-09-06T02:45:33.739Z,12.30
2018-09-06T02:48:01.042Z,11.50
2018-09-06T02:50:33.876Z,11.97
2018-09-06T02:53:01.349Z,11.50
2018-09-06T02:55:29.617Z,11.93
2018-09-06T02:57:57.619Z,10.63
2018-09-06T03:00:31.303Z,13.00
2018-09-06T03:02:58.999Z,12.17
2018-09-06T03:05:26.983Z,12.17
2018-09-06T03:07:55.584Z,12.43
2018-09-06T03:10:23.166Z,11.83
2018-09-06T03:12:51.516Z,11.77
2018-09-06T03:15:18.914Z,12.50
2018-09-06T03:17:46.087Z,12.10
2018-09-06T03:20:13.593Z,12.23
2018-09-06T03:22:41.010Z,13.47
2018-09-06T03:25:08.596Z,13.90
2018-09-06T03:27:36.079Z,13.43
2018-09-06T03:30:03.718Z,12.60
2018-09-06T03:32:31.366Z,12.60
2018-09-06T03:34:58.821Z,12.13
2018-09-06T03:37:26.209Z,12.63
2018-09-06T03:39:53.611Z,12.93
2018-09-06T03:42:20.959Z,13.40
2018-09-06T03:44:48.440Z,12.80
2018-09-06T03:47:15.822Z,12.83
2018-09-06T03:49:43.564Z,13.10
2018-09-06T03:52:11.351Z,13.13
2018-09-06T03:54:39.360Z,12.23
2018-09-06T03:57:07.453Z,13.83
2018-09-06T03:59:34.998Z,12.73
2018-09-06T04:02:02.354Z,12.90
2018-09-06T04:04:29.913Z,12.80
2018-09-06T04:06:57.402Z,11.87
2018-09-06T04:09:24.725Z,12.83
2018-09-06T04:11:52.516Z,13.00
2018-09-06T04:14:19.883Z,13.27
2018-09-06T04:16:47.183Z,13.03
2018-09-06T04:19:14.653Z,13.10
2018-09-06T04:21:42.306Z,12.97
2018-09-06T04:24:09.901Z,13.90
2018-09-06T04:26:37.280Z,14.20
2018-09-06T04:29:04.665Z,13.53
2018-09-06T04:31:31.973Z,13.33
2018-09-06T04:33:59.585Z,13.87
2018-09-06T04:36:27.219Z,14.10
2018-09-06T04:38:55.390Z,14.90
2018-09-06T04:41:22.926Z,14.67
2018-09-06T04:43:50.316Z,13.63
2018-09-06T04:46:17.638Z,14.00
2018-09-06T04:48:45.087Z,14.63
2018-09-06T04:51:12.431Z,13.83
2018-09-06T04:53:39.706Z,12.50
2018-09-06T04:56:07.536Z,14.53
2018-09-06T05:05:32.481Z,16.10
2018-09-06T05:08:00.383Z,14.50
2018-09-06T05:10:28.082Z,14.40
2018-09-06T05:12:55.826Z,14.80
2018-09-06T05:15:23.395Z,15.87
2018-09-06T05:17:50.985Z,14.63
2018-09-06T05:20:18.527Z,16.10
2018-09-06T05:22:45.904Z,15.00
2018-09-06T05:25:13.372Z,15.70
2018-09-06T05:27:40.783Z,13.73
2018-09-06T05:30:08.266Z,15.90
2018-09-06T05:32:36.751Z,14.10
2018-09-06T05:35:04.586Z,15.90
2018-09-06T05:37:32.301Z,15.20
2018-09-06T05:40:00.067Z,15.23
2018-09-06T05:42:27.855Z,15.80
2018-09-06T05:44:55.830Z,14.10
2018-09-06T05:47:23.632Z,14.40
2018-09-06T05:49:51.330Z,14.87
2018-09-06T05:52:18.818Z,14.40
2018-09-06T05:54:46.450Z,13.83
2018-09-06T05:57:14.310Z,15.23
2018-09-06T05:59:41.779Z,14.80
2018-09-06T06:02:09.430Z,15.47
2018-09-06T06:04:36.865Z,15.47
2018-09-06T06:07:04.306Z,15.47
2018-09-06T06:09:31.712Z,17.67
2018-09-06T06:11:59.047Z,14.83
2018-09-06T06:14:26.758Z,15.13
2018-09-06T06:16:54.069Z,14.77
2018-09-06T06:19:21.853Z,15.70
2018-09-06T06:21:49.637Z,16.53
2018-09-06T06:24:17.334Z,16.03
2018-09-06T06:26:44.782Z,16.83
2018-09-06T06:29:12.446Z,16.70
2018-09-06T06:31:40.331Z,15.50
2018-09-06T06:34:08.033Z,16.77
2018-09-06T06:36:35.812Z,18.80
2018-09-06T06:39:05.562Z,19.23
2018-09-06T06:41:33.232Z,18.43
2018-09-06T06:44:01.199Z,19.97
2018-09-06T06:46:28.711Z,19.47
2018-09-06T06:48:56.369Z,18.63
2018-09-06T06:51:24.122Z,18.57
2018-09-06T06:53:51.755Z,18.90
2018-09-06T06:56:19.741Z,17.13
2018-09-06T06:58:47.372Z,16.30
2018-09-06T07:01:14.848Z,16.50
2018-09-06T07:03:42.331Z,16.57
2018-09-06T07:06:09.919Z,16.90
2018-09-06T07:08:37.502Z,16.47
2018-09-06T07:11:05.375Z,16.83
2018-09-06T07:13:33.028Z,16.63
2018-09-06T07:16:00.428Z,17.50
2018-09-06T07:18:28.383Z,17.00
2018-09-06T07:20:56.029Z,17.97
2018-09-06T07:23:23.674Z,16.37
2018-09-06T07:25:51.159Z,16.70
2018-09-06T07:28:18.808Z,18.07
2018-09-06T07:30:46.500Z,16.20
2018-09-06T07:33:14.323Z,15.30
2018-09-06T07:35:42.506Z,17.30
2018-09-06T07:38:10.427Z,18.40
2018-09-06T07:40:38.341Z,16.80
2018-09-06T07:43:06.767Z,15.93
2018-09-06T07:45:36.213Z,17.20
2018-09-06T07:48:03.668Z,18.10
2018-09-06T07:50:31.295Z,17.97
2018-09-06T07:52:58.950Z,17.93
2018-09-06T07:55:26.588Z,17.90
2018-09-06T07:57:54.456Z,19.07
2018-09-06T08:00:22.127Z,19.93
2018-09-06T08:02:50.426Z,19.30
2018-09-06T08:05:18.214Z,18.20
2018-09-06T08:07:46.449Z,17.57
2018-09-06T08:10:16.195Z,17.93
2018-09-06T08:12:47.741Z,18.90
2018-09-06T08:15:15.569Z,18.97
2018-09-06T08:17:43.758Z,18.20
2018-09-06T08:20:11.696Z,17.67
2018-09-06T08:22:40.356Z,17.83
2018-09-06T08:25:08.085Z,17.70
2018-09-06T08:27:36.018Z,16.87
2018-09-06T08:30:03.895Z,18.50
2018-09-06T08:32:31.839Z,19.50
2018-09-06T08:35:00.944Z,18.33
2018-09-06T08:37:29.126Z,18.83
2018-09-06T08:39:57.144Z,20.00
2018-09-06T08:42:24.833Z,20.63
2018-09-06T08:44:53.021Z,20.30
2018-09-06T08:47:20.934Z,20.97
2018-09-06T08:49:48.961Z,19.50
2018-09-06T08:52:16.999Z,19.60
2018-09-06T08:54:44.567Z,18.70
2018-09-06T08:57:12.556Z,20.53
2018-09-06T08:59:40.247Z,18.47
2018-09-06T09:02:15.034Z,20.90
2018-09-06T09:04:43.011Z,21.00
2018-09-06T09:07:10.747Z,21.97
2018-09-06T09:09:39.066Z,20.83
2018-09-06T09:12:06.573Z,20.00
2018-09-06T09:14:34.138Z,19.20
2018-09-06T09:17:01.821Z,19.23
2018-09-06T09:19:29.636Z,19.00
2018-09-06T09:21:57.501Z,18.57
2018-09-06T09:24:26.470Z,21.07
2018-09-06T09:26:54.612Z,21.47
2018-09-06T09:29:21.963Z,20.70
2018-09-06T09:31:49.276Z,19.63
2018-09-06T09:34:16.494Z,21.43
2018-09-06T09:36:43.710Z,19.80
2018-09-06T09:39:11.239Z,20.50
2018-09-06T09:41:38.521Z,21.03
2018-09-06T09:44:06.090Z,20.77
2018-09-06T09:49:00.191Z,20.07
2018-09-06T09:51:27.512Z,19.23
2018-09-06T09:53:55.133Z,20.10
2018-09-06T09:56:22.402Z,21.40
2018-09-06T09:58:49.672Z,19.50
2018-09-06T10:01:16.911Z,19.23
2018-09-06T10:06:22.013Z,20.13
2018-09-06T10:08:55.036Z,19.80
2018-09-06T10:11:22.249Z,21.17
2018-09-06T10:13:49.482Z,20.73
2018-09-06T10:16:16.844Z,20.60
2018-09-06T10:18:44.706Z,20.33
2018-09-06T10:21:12.009Z,20.10
2018-09-06T10:23:39.685Z,19.53
2018-09-06T10:26:07.065Z,18.77
2018-09-06T10:28:34.330Z,21.30
2018-09-06T10:31:02.025Z,20.23
2018-09-06T10:33:29.336Z,19.00
2018-09-06T10:35:56.562Z,18.57
2018-09-06T10:38:24.359Z,21.50
2018-09-06T10:40:51.598Z,17.73
2018-09-06T10:43:18.871Z,17.73
2018-09-06T10:45:46.167Z,15.83
2018-09-06T10:48:13.892Z,15.67
2018-09-06T10:55:25.963Z,15.20
2018-09-06T10:57:53.270Z,15.73
2018-09-06T11:00:20.534Z,16.47
2018-09-06T11:02:48.109Z,14.73
2018-09-06T11:05:15.653Z,15.77
2018-09-06T11:07:42.875Z,17.50
2018-09-06T11:10:10.107Z,17.47
2018-09-06T11:12:37.405Z,17.13
2018-09-06T11:15:05.157Z,17.83
2018-09-06T11:17:32.348Z,19.60
2018-09-06T11:20:00.039Z,19.80
2018-09-06T11:22:27.426Z,19.17
2018-09-06T11:24:54.905Z,17.67
2018-09-06T11:27:22.344Z,18.10
2018-09-06T11:29:49.671Z,16.50
2018-09-06T11:32:16.977Z,16.13
2018-09-06T11:34:44.226Z,17.33
2018-09-06T11:37:11.697Z,17.90
2018-09-06T11:39:39.015Z,16.33
2018-09-06T11:42:06.397Z,19.50
2018-09-06T11:44:33.627Z,20.53
2018-09-06T11:47:00.860Z,18.47
2018-09-06T11:49:28.181Z,11.70
2018-09-06T11:51:55.428Z,10.20
2018-09-06T11:54:22.957Z,11.10
2018-09-06T11:56:50.204Z,9.47
2018-09-06T11:59:17.423Z,10.10
2018-09-06T12:01:44.714Z,9.00
2018-09-06T12:04:11.959Z,9.70
2018-09-06T12:06:39.129Z,8.83
2018-09-06T12:09:06.667Z,9.17
2018-09-06T12:11:33.966Z,9.00
2018-09-06T12:14:01.276Z,11.23
2018-09-06T12:16:28.855Z,10.33
2018-09-06T12:18:56.137Z,10.87
2018-09-06T12:21:23.351Z,11.10
2018-09-06T12:23:50.635Z,12.80
2018-09-06T12:26:18.071Z,12.60
2018-09-06T12:28:45.291Z,11.43
2018-09-06T12:31:12.534Z,11.20
2018-09-06T12:33:39.799Z,13.23
2018-09-06T12:36:07.122Z,10.10
2018-09-06T12:38:34.386Z,9.07
2018-09-06T12:41:01.572Z,9.47
2018-09-06T12:43:28.920Z,9.00
2018-09-06T12:45:56.434Z,9.77
2018-09-06T12:48:23.653Z,9.90
2018-09-06T12:50:51.589Z,8.50
2018-09-06T12:53:18.858Z,9.07
2018-09-06T12:55:46.351Z,8.80
2018-09-06T12:58:13.655Z,9.60
2018-09-06T13:00:40.929Z,9.20
2018-09-06T13:03:08.120Z,7.73
2018-09-06T13:05:36.343Z,7.07
2018-09-06T13:08:03.623Z,7.87
2018-09-06T13:10:31.110Z,10.30
2018-09-06T13:12:58.387Z,6.70
2018-09-06T13:15:25.905Z,6.77
2018-09-06T13:17:54.174Z,7.33
2018-09-06T13:20:21.386Z,8.10
2018-09-06T13:22:48.666Z,7.30
2018-09-06T13:25:16.024Z,7.13
2018-09-06T13:27:43.204Z,6.53
2018-09-06T13:30:10.454Z,6.70
2018-09-06T13:32:37.753Z,7.40
2018-09-06T13:35:04.992Z,6.80
2018-09-06T13:37:32.285Z,6.50
2018-09-06T13:39:59.612Z,7.90
2018-09-06T13:42:26.859Z,7.03
2018-09-06T13:44:54.096Z,6.63
2018-09-06T13:47:21.415Z,7.23
2018-09-06T13:49:48.626Z,7.13
2018-09-06T13:52:16.168Z,7.50
2018-09-06T13:54:43.302Z,7.50
2018-09-06T13:57:10.814Z,7.20
2018-09-06T13:59:38.119Z,7.40
2018-09-06T14:02:05.448Z,7.90
2018-09-06T14:04:33.310Z,7.23
2018-09-06T14:07:00.563Z,8.10
2018-09-06T14:09:27.955Z,7.93
2018-09-06T14:11:55.159Z,7.63
2018-09-06T14:14:22.392Z,7.80
2018-09-06T14:16:49.617Z,6.90
2018-09-06T14:19:17.026Z,8.27
2018-09-06T14:21:44.381Z,8.20
2018-09-06T14:24:11.635Z,7.87
2018-09-06T14:26:38.840Z,7.50
2018-09-06T14:29:06.046Z,7.53
2018-09-06T14:31:33.393Z,8.30
2018-09-06T14:34:00.978Z,8.07
2018-09-06T14:36:28.189Z,8.87
2018-09-06T14:38:55.632Z,8.50
2018-09-06T14:41:22.855Z,8.63
2018-09-06T14:43:50.181Z,8.53
2018-09-06T14:46:17.410Z,9.13
2018-09-06T14:48:44.834Z,8.70
2018-09-06T14:51:12.165Z,9.33
2018-09-06T14:53:39.662Z,10.00
2018-09-06T14:56:07.955Z,9.43
2018-09-06T14:58:36.181Z,10.80
2018-09-06T15:01:03.473Z,12.10
2018-09-06T15:03:30.788Z,11.20
2018-09-06T15:05:58.158Z,13.10
2018-09-06T15:08:25.388Z,11.93
2018-09-06T15:10:52.836Z,13.60
2018-09-06T15:13:20.025Z,13.60
2018-09-06T15:15:47.247Z,14.60
2018-09-06T15:18:14.841Z,14.50
2018-09-06T15:20:42.254Z,13.33
2018-09-06T15:23:09.633Z,13.90
2018-09-06T15:25:36.893Z,14.87
2018-09-06T15:28:04.086Z,14.43
2018-09-06T15:30:31.595Z,14.10
2018-09-06T15:32:58.843Z,14.40
2018-09-06T15:35:26.429Z,14.97
2018-09-06T15:37:54.629Z,16.17
2018-09-06T15:40:21.858Z,14.60
2018-09-06T15:42:49.108Z,14.40
2018-09-06T15:45:16.395Z,13.63
2018-09-06T15:47:44.221Z,14.57
2018-09-06T15:50:11.627Z,14.13
2018-09-06T15:52:39.074Z,15.27
2018-09-06T15:55:06.380Z,13.97
2018-09-06T15:57:34.003Z,15.43
2018-09-06T16:00:01.274Z,14.47
2018-09-06T16:02:28.563Z,14.40
2018-09-06T16:04:55.948Z,14.30
2018-09-06T16:07:24.154Z,14.43
2018-09-06T16:09:51.381Z,14.83
2018-09-06T16:12:18.784Z,15.10
2018-09-06T16:14:46.177Z,13.90
2018-09-06T16:17:13.814Z,13.73
2018-09-06T16:19:41.352Z,14.27
2018-09-06T16:22:08.870Z,14.63
2018-09-06T16:24:36.890Z,15.30
2018-09-06T16:27:04.085Z,14.17
2018-09-06T16:29:31.437Z,14.07
2018-09-06T16:31:58.735Z,14.50
2018-09-06T16:34:26.521Z,15.03
2018-09-06T16:36:54.932Z,15.00
2018-09-06T16:39:22.202Z,15.23
2018-09-06T16:41:49.496Z,14.90
2018-09-06T16:44:16.675Z,15.60
2018-09-06T16:48:08.198Z,16.30
2018-09-06T16:50:35.459Z,14.50
2018-09-06T16:53:02.775Z,14.20
2018-09-06T16:55:30.770Z,15.10
2018-09-06T16:57:58.007Z,15.63
2018-09-06T17:00:26.510Z,15.13
2018-09-06T17:02:54.854Z,14.47
2018-09-06T17:05:22.186Z,14.97
2018-09-06T17:07:49.407Z,16.00
2018-09-06T17:10:16.924Z,14.87
2018-09-06T17:12:44.203Z,15.20
2018-09-06T17:15:11.661Z,14.60
2018-09-06T17:17:41.614Z,15.23
2018-09-06T17:20:12.310Z,14.60
2018-09-06T17:22:39.552Z,14.60
2018-09-06T17:25:06.826Z,15.03
2018-09-06T17:27:34.042Z,14.47
2018-09-06T17:30:01.479Z,14.40
2018-09-06T17:32:28.889Z,14.80
2018-09-06T17:34:56.161Z,13.50
2018-09-06T17:37:24.079Z,14.70
2018-09-06T17:39:51.515Z,15.60
2018-09-06T17:42:19.437Z,13.83
2018-09-06T17:44:47.714Z,13.63
2018-09-06T17:47:15.906Z,14.63
2018-09-06T17:49:43.301Z,13.53
2018-09-06T17:52:10.552Z,13.93
2018-09-06T17:54:38.226Z,12.67
2018-09-06T17:57:05.451Z,12.50
2018-09-06T17:59:33.225Z,11.73
2018-09-06T18:02:00.566Z,11.40
2018-09-06T18:04:27.820Z,11.43
2018-09-06T18:06:55.119Z,11.67
2018-09-06T18:09:22.331Z,11.17
2018-09-06T18:11:50.280Z,11.43
2018-09-06T18:14:17.534Z,11.33
2018-09-06T18:16:45.124Z,12.00
2018-09-06T18:19:12.472Z,11.40
2018-09-06T18:21:39.836Z,11.60
2018-09-06T18:24:07.099Z,11.70
2018-09-06T18:26:34.380Z,11.40
2018-09-06T18:29:02.206Z,11.63
2018-09-06T18:31:29.579Z,11.93
2018-09-06T18:33:57.046Z,11.90
2018-09-06T18:36:24.718Z,12.37
2018-09-06T18:38:52.394Z,12.33
2018-09-06T18:41:19.740Z,13.23
2018-09-06T18:43:48.113Z,13.07
2018-09-06T18:46:15.343Z,11.83
2018-09-06T18:48:43.213Z,13.03
2018-09-06T18:51:11.798Z,12.80
2018-09-06T18:53:39.669Z,13.63
2018-09-06T18:56:06.966Z,14.67
2018-09-06T18:58:34.361Z,14.00
2018-09-06T19:01:01.901Z,13.10
2018-09-06T19:03:29.496Z,14.13
2018-09-06T19:05:56.844Z,14.00
2018-09-06T19:08:24.514Z,13.33
2018-09-06T19:10:52.707Z,12.87
2018-09-06T19:13:20.086Z,14.50
2018-09-06T19:15:47.635Z,13.50
2018-09-06T19:18:15.094Z,14.23
2018-09-06T19:20:42.356Z,13.83
2018-09-06T19:23:10.062Z,14.37
2018-09-06T19:25:37.532Z,15.00
2018-09-06T19:28:05.204Z,14.70
2018-09-06T19:30:32.635Z,14.00
2018-09-06T19:32:59.879Z,15.30
2018-09-06T19:35:27.337Z,15.90
2018-09-06T19:37:54.794Z,15.10
2018-09-06T19:40:22.283Z,15.60
2018-09-06T19:44:14.064Z,15.93
2018-09-06T19:46:43.462Z,15.07
2018-09-06T19:49:11.291Z,16.77
2018-09-06T19:51:39.922Z,17.63
2018-09-06T19:54:08.808Z,17.37
2018-09-06T19:56:36.067Z,16.90
2018-09-06T19:59:03.365Z,17.50
2018-09-06T20:01:30.949Z,18.17
2018-09-06T20:03:58.201Z,17.90
2018-09-06T20:06:25.889Z,18.40
2018-09-06T20:08:53.338Z,18.67
2018-09-06T20:11:22.690Z,18.30
2018-09-06T20:13:51.490Z,19.20
2018-09-06T20:16:19.321Z,19.00
2018-09-06T20:18:46.597Z,20.10
2018-09-06T20:21:13.894Z,21.43
2018-09-06T20:23:41.227Z,19.87
2018-09-06T20:26:08.802Z,19.10
2018-09-06T20:28:36.068Z,20.73
2018-09-06T20:31:03.320Z,20.30
2018-09-06T20:33:30.871Z,20.70
2018-09-06T20:35:58.463Z,20.20
2018-09-06T20:38:25.880Z,19.70
2018-09-06T20:40:53.974Z,21.03
2018-09-06T20:43:21.255Z,21.03
2018-09-06T20:45:48.805Z,21.13
2018-09-06T20:48:16.367Z,21.03
2018-09-06T20:50:43.625Z,20.93
2018-09-06T20:53:11.085Z,26.10
2018-09-06T20:55:38.661Z,26.00
2018-09-06T20:58:07.185Z,24.17
2018-09-06T21:00:34.548Z,24.80
2018-09-06T21:03:02.032Z,26.07
2018-09-06T21:05:29.447Z,25.83
2018-09-06T21:07:56.729Z,26.57
2018-09-06T21:10:24.076Z,29.87
2018-09-06T21:12:51.429Z,35.47
2018-09-06T21:15:18.979Z,34.80
2018-09-06T21:17:46.406Z,33.77
2018-09-06T21:20:13.839Z,35.50
2018-09-06T21:22:41.088Z,33.63
2018-09-06T21:25:08.416Z,34.93
2018-09-06T21:27:35.795Z,35.30
2018-09-06T21:30:03.395Z,36.10
2018-09-06T21:32:30.636Z,36.40
2018-09-06T21:34:58.452Z,36.43
2018-09-06T21:37:25.857Z,36.50
2018-09-06T21:39:53.126Z,36.40
2018-09-06T21:42:20.746Z,35.40
2018-09-06T21:44:47.929Z,37.40
2018-09-06T21:47:15.202Z,39.73
2018-09-06T21:49:42.832Z,40.27
2018-09-06T21:52:10.093Z,38.13
2018-09-06T21:54:37.321Z,37.20
2018-09-06T21:57:04.596Z,39.17
2018-09-06T21:59:32.046Z,37.53
2018-09-06T22:01:59.554Z,42.57
2018-09-06T22:04:26.967Z,41.03
2018-09-06T22:06:54.544Z,42.07
2018-09-06T22:09:21.727Z,42.00
2018-09-06T22:11:48.998Z,43.30
2018-09-06T22:14:16.222Z,42.93
2018-09-06T22:16:43.481Z,42.20
2018-09-06T22:19:11.104Z,42.83
2018-09-06T22:21:38.405Z,42.90
2018-09-06T22:24:05.897Z,43.67
2018-09-06T22:26:33.156Z,43.90
2018-09-06T22:29:00.543Z,43.63
2018-09-06T22:31:27.830Z,46.37
2018-09-06T22:33:55.189Z,47.10
2018-09-06T22:36:22.557Z,48.03
2018-09-06T22:38:49.866Z,45.70
2018-09-06T22:41:23.698Z,46.97
2018-09-06T22:43:50.923Z,48.07
2018-09-06T22:46:18.118Z,47.03
2018-09-06T22:48:45.574Z,45.40
2018-09-06T22:51:12.775Z,45.13
2018-09-06T22:53:40.329Z,45.37
2018-09-06T22:56:07.601Z,48.00
2018-09-06T22:58:34.956Z,46.57
2018-09-06T23:01:02.211Z,50.43
2018-09-06T23:03:34.759Z,47.53
2018-09-06T23:06:02.051Z,48.57
2018-09-06T23:08:29.350Z,50.90
2018-09-06T23:10:56.626Z,46.00
2018-09-06T23:13:24.059Z,46.50
2018-09-06T23:15:51.294Z,48.50
2018-09-06T23:18:18.571Z,48.43
2018-09-06T23:20:46.192Z,45.67
2018-09-06T23:23:13.391Z,46.37
2018-09-06T23:25:40.776Z,44.90
2018-09-06T23:28:08.770Z,48.47
2018-09-06T23:30:36.045Z,47.40
2018-09-06T23:33:03.284Z,45.50
2018-09-06T23:35:30.609Z,46.10
2018-09-06T23:37:57.901Z,46.30
2018-09-06T23:40:25.251Z,44.80
2018-09-06T23:42:52.507Z,47.57
2018-09-06T23:45:19.722Z,46.83
2018-09-06T23:47:47.067Z,48.30
2018-09-06T23:50:14.278Z,46.77
2018-09-06T23:52:41.530Z,47.43
2018-09-06T23:55:09.783Z,47.57
2018-09-06T23:57:37.150Z,46.10
